sensor_id;sensor_type;location;lat;lon;timestamp;pressure;altitude;pressure_sealevel;temperature;humidity
20156;BME280;10238;49.556;10.956;2023-05-03T00:02:07;99163.22;;;8.53;100.00
20156;BME280;10238;49.556;10.956;2023-05-03T00:04:57;99154.19;;;8.44;100.00
20156;BME280;10238;49.556;10.956;2023-05-03T00:07:46;99163.47;;;8.39;100.00
20156;BME280;10238;49.556;10.956;2023-05-03T00:10:34;99158.66;;;8.33;100.00
20156;BME280;10238;49.556;10.956;2023-05-03T00:13:22;99169.75;;;8.27;100.00
20156;BME280;10238;49.556;10.956;2023-05-03T00:16:10;99162.16;;;8.22;100.00
20156;BME280;10238;49.556;10.956;2023-05-03T00:18:58;99156.19;;;8.19;100.00
20156;BME280;10238;49.556;10.956;2023-05-03T00:21:48;99160.19;;;8.13;100.00
20156;BME280;10238;49.556;10.956;2023-05-03T00:24:35;99159.72;;;8.08;100.00
20156;BME280;10238;49.556;10.956;2023-05-03T00:27:23;99156.56;;;8.03;100.00
20156;BME280;10238;49.556;10.956;2023-05-03T00:30:12;99164.88;;;7.99;100.00
20156;BME280;10238;49.556;10.956;2023-05-03T00:33:00;99158.47;;;7.90;100.00
20156;BME280;10238;49.556;10.956;2023-05-03T00:35:48;99155.34;;;7.85;100.00
20156;BME280;10238;49.556;10.956;2023-05-03T00:38:38;99164.38;;;7.83;100.00
20156;BME280;10238;49.556;10.956;2023-05-03T00:41:26;99162.94;;;7.79;100.00
20156;BME280;10238;49.556;10.956;2023-05-03T00:44:14;99155.94;;;7.78;100.00
20156;BME280;10238;49.556;10.956;2023-05-03T00:47:02;99162.41;;;7.74;100.00
20156;BME280;10238;49.556;10.956;2023-05-03T00:49:52;99162.53;;;7.72;100.00
20156;BME280;10238;49.556;10.956;2023-05-03T00:52:41;99161.94;;;7.69;100.00
20156;BME280;10238;49.556;10.956;2023-05-03T00:55:30;99162.53;;;7.61;100.00
20156;BME280;10238;49.556;10.956;2023-05-03T00:58:19;99155.91;;;7.56;100.00
20156;BME280;10238;49.556;10.956;2023-05-03T01:01:08;99155.41;;;7.51;100.00
20156;BME280;10238;49.556;10.956;2023-05-03T01:03:56;99162.13;;;7.44;100.00
20156;BME280;10238;49.556;10.956;2023-05-03T01:06:49;99163.53;;;7.37;100.00
20156;BME280;10238;49.556;10.956;2023-05-03T01:09:52;99157.72;;;7.32;100.00
20156;BME280;10238;49.556;10.956;2023-05-03T01:12:52;99161.34;;;7.31;100.00
20156;BME280;10238;49.556;10.956;2023-05-03T01:15:47;99156.06;;;7.31;100.00
20156;BME280;10238;49.556;10.956;2023-05-03T01:18:38;99146.78;;;7.25;100.00
20156;BME280;10238;49.556;10.956;2023-05-03T01:21:28;99146.16;;;7.22;100.00
20156;BME280;10238;49.556;10.956;2023-05-03T01:24:22;99142.06;;;7.18;100.00
20156;BME280;10238;49.556;10.956;2023-05-03T01:27:13;99141.34;;;7.16;100.00
20156;BME280;10238;49.556;10.956;2023-05-03T01:30:06;99139.66;;;7.15;100.00
20156;BME280;10238;49.556;10.956;2023-05-03T01:33:04;99141.34;;;7.16;100.00
20156;BME280;10238;49.556;10.956;2023-05-03T01:35:56;99140.09;;;7.09;100.00
20156;BME280;10238;49.556;10.956;2023-05-03T01:38:46;99142.97;;;7.06;100.00
20156;BME280;10238;49.556;10.956;2023-05-03T01:41:35;99144.16;;;7.02;100.00
20156;BME280;10238;49.556;10.956;2023-05-03T01:44:26;99144.38;;;6.99;100.00
20156;BME280;10238;49.556;10.956;2023-05-03T01:47:15;99144.63;;;6.96;100.00
20156;BME280;10238;49.556;10.956;2023-05-03T01:50:03;99143.88;;;6.94;100.00
20156;BME280;10238;49.556;10.956;2023-05-03T01:52:51;99142.31;;;6.91;100.00
20156;BME280;10238;49.556;10.956;2023-05-03T01:55:39;99138.81;;;6.91;100.00
20156;BME280;10238;49.556;10.956;2023-05-03T01:58:27;99141.69;;;6.88;100.00
20156;BME280;10238;49.556;10.956;2023-05-03T02:01:16;99153.44;;;6.84;100.00
20156;BME280;10238;49.556;10.956;2023-05-03T02:04:04;99147.63;;;6.79;100.00
20156;BME280;10238;49.556;10.956;2023-05-03T02:06:53;99149.78;;;6.74;100.00
20156;BME280;10238;49.556;10.956;2023-05-03T02:09:41;99144.72;;;6.71;100.00
20156;BME280;10238;49.556;10.956;2023-05-03T02:12:31;99140.94;;;6.62;100.00
20156;BME280;10238;49.556;10.956;2023-05-03T02:15:19;99144.97;;;6.55;100.00
20156;BME280;10238;49.556;10.956;2023-05-03T02:18:08;99143.50;;;6.51;100.00
20156;BME280;10238;49.556;10.956;2023-05-03T02:20:56;99147.97;;;6.50;100.00
20156;BME280;10238;49.556;10.956;2023-05-03T02:23:44;99150.72;;;6.49;100.00
20156;BME280;10238;49.556;10.956;2023-05-03T02:26:32;99149.44;;;6.42;100.00
20156;BME280;10238;49.556;10.956;2023-05-03T02:29:20;99147.97;;;6.38;100.00
20156;BME280;10238;49.556;10.956;2023-05-03T02:32:08;99146.41;;;6.35;100.00
20156;BME280;10238;49.556;10.956;2023-05-03T02:34:58;99136.28;;;6.29;100.00
20156;BME280;10238;49.556;10.956;2023-05-03T02:37:45;99154.13;;;6.26;100.00
20156;BME280;10238;49.556;10.956;2023-05-03T02:40:34;99150.88;;;6.22;100.00
20156;BME280;10238;49.556;10.956;2023-05-03T02:43:22;99151.81;;;6.21;100.00
20156;BME280;10238;49.556;10.956;2023-05-03T02:46:10;99159.22;;;6.16;100.00
20156;BME280;10238;49.556;10.956;2023-05-03T02:48:58;99157.53;;;6.15;100.00
20156;BME280;10238;49.556;10.956;2023-05-03T02:51:47;99150.78;;;6.11;100.00
20156;BME280;10238;49.556;10.956;2023-05-03T02:54:35;99150.97;;;6.08;100.00
20156;BME280;10238;49.556;10.956;2023-05-03T02:57:23;99140.13;;;6.00;100.00
20156;BME280;10238;49.556;10.956;2023-05-03T03:00:12;99138.03;;;5.93;100.00
20156;BME280;10238;49.556;10.956;2023-05-03T03:03:01;99138.34;;;5.88;100.00
20156;BME280;10238;49.556;10.956;2023-05-03T03:05:49;99150.78;;;5.86;100.00
20156;BME280;10238;49.556;10.956;2023-05-03T03:08:38;99148.38;;;5.83;100.00
20156;BME280;10238;49.556;10.956;2023-05-03T03:11:26;99158.38;;;5.78;100.00
20156;BME280;10238;49.556;10.956;2023-05-03T03:14:14;99157.50;;;5.78;100.00
20156;BME280;10238;49.556;10.956;2023-05-03T03:17:05;99158.38;;;5.78;100.00
20156;BME280;10238;49.556;10.956;2023-05-03T03:19:54;99150.13;;;5.70;100.00
20156;BME280;10238;49.556;10.956;2023-05-03T03:22:43;99154.13;;;5.63;100.00
20156;BME280;10238;49.556;10.956;2023-05-03T03:25:33;99152.66;;;5.59;100.00
20156;BME280;10238;49.556;10.956;2023-05-03T03:28:21;99155.72;;;5.53;100.00
20156;BME280;10238;49.556;10.956;2023-05-03T03:31:09;99150.75;;;5.49;100.00
20156;BME280;10238;49.556;10.956;2023-05-03T03:33:56;99161.50;;;5.46;100.00
20156;BME280;10238;49.556;10.956;2023-05-03T03:36:44;99155.59;;;5.42;100.00
20156;BME280;10238;49.556;10.956;2023-05-03T03:39:32;99160.44;;;5.36;100.00
20156;BME280;10238;49.556;10.956;2023-05-03T03:42:22;99165.03;;;5.32;100.00
20156;BME280;10238;49.556;10.956;2023-05-03T03:45:11;99164.31;;;5.30;100.00
20156;BME280;10238;49.556;10.956;2023-05-03T03:47:59;99163.78;;;5.25;100.00
20156;BME280;10238;49.556;10.956;2023-05-03T03:50:47;99173.69;;;5.22;100.00
20156;BME280;10238;49.556;10.956;2023-05-03T03:53:35;99176.44;;;5.20;100.00
20156;BME280;10238;49.556;10.956;2023-05-03T03:56:23;99182.63;;;5.19;100.00
20156;BME280;10238;49.556;10.956;2023-05-03T03:59:13;99185.47;;;5.16;100.00
20156;BME280;10238;49.556;10.956;2023-05-03T04:02:01;99189.81;;;5.17;100.00
20156;BME280;10238;49.556;10.956;2023-05-03T04:04:49;99187.16;;;5.17;100.00
20156;BME280;10238;49.556;10.956;2023-05-03T04:07:37;99192.63;;;5.14;100.00
20156;BME280;10238;49.556;10.956;2023-05-03T04:10:25;99194.81;;;5.08;100.00
20156;BME280;10238;49.556;10.956;2023-05-03T04:13:13;99193.25;;;5.05;100.00
20156;BME280;10238;49.556;10.956;2023-05-03T04:16:03;99194.00;;;5.07;100.00
20156;BME280;10238;49.556;10.956;2023-05-03T04:18:51;99198.69;;;5.02;100.00
20156;BME280;10238;49.556;10.956;2023-05-03T04:21:39;99203.31;;;4.99;100.00
20156;BME280;10238;49.556;10.956;2023-05-03T04:24:27;99198.91;;;4.99;100.00
20156;BME280;10238;49.556;10.956;2023-05-03T04:27:16;99219.78;;;5.02;100.00
20156;BME280;10238;49.556;10.956;2023-05-03T04:30:04;99221.47;;;5.03;100.00
20156;BME280;10238;49.556;10.956;2023-05-03T04:32:55;99225.72;;;5.06;100.00
20156;BME280;10238;49.556;10.956;2023-05-03T04:35:43;99224.47;;;5.11;100.00
20156;BME280;10238;49.556;10.956;2023-05-03T04:38:31;99230.50;;;5.13;100.00
20156;BME280;10238;49.556;10.956;2023-05-03T04:41:19;99240.69;;;5.18;100.00
20156;BME280;10238;49.556;10.956;2023-05-03T04:44:08;99250.75;;;5.25;100.00
20156;BME280;10238;49.556;10.956;2023-05-03T04:46:55;99249.72;;;5.28;100.00
20156;BME280;10238;49.556;10.956;2023-05-03T04:49:45;99247.31;;;5.37;100.00
20156;BME280;10238;49.556;10.956;2023-05-03T04:52:33;99252.09;;;5.45;100.00
20156;BME280;10238;49.556;10.956;2023-05-03T04:55:21;99248.00;;;5.53;100.00
20156;BME280;10238;49.556;10.956;2023-05-03T04:58:09;99246.63;;;5.60;100.00
20156;BME280;10238;49.556;10.956;2023-05-03T05:00:57;99249.84;;;5.65;100.00
20156;BME280;10238;49.556;10.956;2023-05-03T05:03:46;99245.06;;;5.70;100.00
20156;BME280;10238;49.556;10.956;2023-05-03T05:06:36;99259.06;;;5.85;100.00
20156;BME280;10238;49.556;10.956;2023-05-03T05:09:25;99251.91;;;5.87;100.00
20156;BME280;10238;49.556;10.956;2023-05-03T05:12:14;99259.28;;;5.94;100.00
20156;BME280;10238;49.556;10.956;2023-05-03T05:15:02;99263.75;;;6.06;100.00
20156;BME280;10238;49.556;10.956;2023-05-03T05:17:50;99263.34;;;6.12;100.00
20156;BME280;10238;49.556;10.956;2023-05-03T05:20:38;99262.69;;;6.21;100.00
20156;BME280;10238;49.556;10.956;2023-05-03T05:23:27;99269.97;;;6.30;100.00
20156;BME280;10238;49.556;10.956;2023-05-03T05:26:15;99271.22;;;6.37;100.00
20156;BME280;10238;49.556;10.956;2023-05-03T05:29:03;99266.28;;;6.45;100.00
20156;BME280;10238;49.556;10.956;2023-05-03T05:31:52;99260.97;;;6.58;100.00
20156;BME280;10238;49.556;10.956;2023-05-03T05:34:40;99264.88;;;6.65;100.00
20156;BME280;10238;49.556;10.956;2023-05-03T05:37:31;99269.28;;;6.77;100.00
20156;BME280;10238;49.556;10.956;2023-05-03T05:40:20;99277.63;;;6.84;100.00
20156;BME280;10238;49.556;10.956;2023-05-03T05:43:08;99277.81;;;6.93;100.00
20156;BME280;10238;49.556;10.956;2023-05-03T05:45:56;99273.38;;;7.06;100.00
20156;BME280;10238;49.556;10.956;2023-05-03T05:48:44;99274.50;;;7.15;100.00
20156;BME280;10238;49.556;10.956;2023-05-03T05:51:32;99279.13;;;7.24;100.00
20156;BME280;10238;49.556;10.956;2023-05-03T05:54:20;99277.50;;;7.34;100.00
20156;BME280;10238;49.556;10.956;2023-05-03T05:57:10;99282.94;;;7.43;100.00
20156;BME280;10238;49.556;10.956;2023-05-03T05:59:58;99273.81;;;7.47;100.00
20156;BME280;10238;49.556;10.956;2023-05-03T06:02:47;99276.63;;;7.57;100.00
20156;BME280;10238;49.556;10.956;2023-05-03T06:05:35;99279.75;;;7.62;100.00
20156;BME280;10238;49.556;10.956;2023-05-03T06:08:23;99282.81;;;7.68;100.00
20156;BME280;10238;49.556;10.956;2023-05-03T06:11:11;99277.94;;;7.75;100.00
20156;BME280;10238;49.556;10.956;2023-05-03T06:14:01;99285.25;;;7.82;100.00
20156;BME280;10238;49.556;10.956;2023-05-03T06:16:50;99282.03;;;7.90;100.00
20156;BME280;10238;49.556;10.956;2023-05-03T06:19:39;99286.88;;;7.96;100.00
20156;BME280;10238;49.556;10.956;2023-05-03T06:22:30;99284.75;;;8.01;100.00
20156;BME280;10238;49.556;10.956;2023-05-03T06:25:18;99273.69;;;8.07;100.00
20156;BME280;10238;49.556;10.956;2023-05-03T06:28:06;99279.22;;;8.15;100.00
20156;BME280;10238;49.556;10.956;2023-05-03T06:30:56;99278.69;;;8.22;100.00
20156;BME280;10238;49.556;10.956;2023-05-03T06:33:44;99272.91;;;8.28;100.00
20156;BME280;10238;49.556;10.956;2023-05-03T06:36:32;99269.44;;;8.39;100.00
20156;BME280;10238;49.556;10.956;2023-05-03T06:39:23;99268.75;;;8.48;100.00
20156;BME280;10238;49.556;10.956;2023-05-03T06:42:11;99271.38;;;8.59;100.00
20156;BME280;10238;49.556;10.956;2023-05-03T06:44:59;99270.78;;;8.66;100.00
20156;BME280;10238;49.556;10.956;2023-05-03T06:47:48;99263.66;;;8.78;100.00
20156;BME280;10238;49.556;10.956;2023-05-03T06:50:36;99270.91;;;8.87;100.00
20156;BME280;10238;49.556;10.956;2023-05-03T06:53:24;99269.94;;;8.99;100.00
20156;BME280;10238;49.556;10.956;2023-05-03T06:56:12;99262.19;;;9.07;100.00
20156;BME280;10238;49.556;10.956;2023-05-03T06:59:00;99258.69;;;9.18;100.00
20156;BME280;10238;49.556;10.956;2023-05-03T07:01:49;99265.78;;;9.28;100.00
20156;BME280;10238;49.556;10.956;2023-05-03T07:04:38;99261.16;;;9.41;100.00
20156;BME280;10238;49.556;10.956;2023-05-03T07:07:26;99254.13;;;9.51;100.00
20156;BME280;10238;49.556;10.956;2023-05-03T07:10:14;99257.31;;;9.66;100.00
20156;BME280;10238;49.556;10.956;2023-05-03T07:13:02;99251.94;;;9.77;100.00
20156;BME280;10238;49.556;10.956;2023-05-03T07:15:50;99257.09;;;9.89;100.00
20156;BME280;10238;49.556;10.956;2023-05-03T07:18:38;99250.75;;;10.01;100.00
20156;BME280;10238;49.556;10.956;2023-05-03T07:21:28;99247.06;;;10.13;100.00
20156;BME280;10238;49.556;10.956;2023-05-03T07:24:16;99243.13;;;10.28;100.00
20156;BME280;10238;49.556;10.956;2023-05-03T07:27:05;99228.78;;;10.40;100.00
20156;BME280;10238;49.556;10.956;2023-05-03T07:29:52;99228.41;;;10.54;100.00
20156;BME280;10238;49.556;10.956;2023-05-03T07:32:41;99221.78;;;10.69;100.00
20156;BME280;10238;49.556;10.956;2023-05-03T07:35:29;99224.50;;;10.88;100.00
20156;BME280;10238;49.556;10.956;2023-05-03T07:38:20;99216.56;;;11.08;100.00
20156;BME280;10238;49.556;10.956;2023-05-03T07:41:08;99217.31;;;11.29;100.00
20156;BME280;10238;49.556;10.956;2023-05-03T07:43:55;99217.47;;;11.56;100.00
20156;BME280;10238;49.556;10.956;2023-05-03T07:46:43;99218.63;;;11.91;100.00
20156;BME280;10238;49.556;10.956;2023-05-03T07:49:31;99201.44;;;12.22;100.00
20156;BME280;10238;49.556;10.956;2023-05-03T07:52:21;99209.16;;;12.62;100.00
20156;BME280;10238;49.556;10.956;2023-05-03T07:55:11;99195.53;;;12.92;100.00
20156;BME280;10238;49.556;10.956;2023-05-03T07:57:59;99193.03;;;13.35;100.00
20156;BME280;10238;49.556;10.956;2023-05-03T08:00:47;99188.97;;;13.84;100.00
20156;BME280;10238;49.556;10.956;2023-05-03T08:03:35;99195.91;;;14.37;100.00
20156;BME280;10238;49.556;10.956;2023-05-03T08:06:23;99190.69;;;14.61;100.00
20156;BME280;10238;49.556;10.956;2023-05-03T08:09:11;99179.50;;;14.99;100.00
20156;BME280;10238;49.556;10.956;2023-05-03T08:12:01;99179.97;;;15.45;100.00
20156;BME280;10238;49.556;10.956;2023-05-03T08:14:49;99170.94;;;16.10;100.00
20156;BME280;10238;49.556;10.956;2023-05-03T08:17:42;99170.53;;;16.61;100.00
20156;BME280;10238;49.556;10.956;2023-05-03T08:20:30;99158.09;;;16.98;100.00
20156;BME280;10238;49.556;10.956;2023-05-03T08:23:22;99156.47;;;16.43;97.31
20156;BME280;10238;49.556;10.956;2023-05-03T08:26:11;99159.06;;;17.36;100.00
20156;BME280;10238;49.556;10.956;2023-05-03T08:29:01;99156.16;;;17.91;100.00
20156;BME280;10238;49.556;10.956;2023-05-03T08:31:49;99163.50;;;18.63;100.00
20156;BME280;10238;49.556;10.956;2023-05-03T08:34:37;99155.78;;;19.03;92.46
20156;BME280;10238;49.556;10.956;2023-05-03T08:37:25;99153.72;;;19.56;87.02
20156;BME280;10238;49.556;10.956;2023-05-03T08:40:13;99150.22;;;19.83;84.76
20156;BME280;10238;49.556;10.956;2023-05-03T08:43:07;99146.53;;;20.11;81.77
20156;BME280;10238;49.556;10.956;2023-05-03T08:45:57;99149.34;;;20.52;80.10
20156;BME280;10238;49.556;10.956;2023-05-03T08:48:46;99142.50;;;20.90;78.30
20156;BME280;10238;49.556;10.956;2023-05-03T08:51:34;99144.28;;;21.04;78.03
20156;BME280;10238;49.556;10.956;2023-05-03T08:54:25;99147.63;;;21.19;74.32
20156;BME280;10238;49.556;10.956;2023-05-03T08:57:14;99145.44;;;21.49;73.03
20156;BME280;10238;49.556;10.956;2023-05-03T09:00:04;99149.22;;;21.67;73.56
20156;BME280;10238;49.556;10.956;2023-05-03T09:02:58;99149.06;;;21.95;72.42
20156;BME280;10238;49.556;10.956;2023-05-03T09:05:46;99141.81;;;22.02;72.28
20156;BME280;10238;49.556;10.956;2023-05-03T09:08:42;99138.22;;;22.40;71.82
20156;BME280;10238;49.556;10.956;2023-05-03T09:11:31;99132.75;;;22.66;68.73
20156;BME280;10238;49.556;10.956;2023-05-03T09:14:19;99135.22;;;22.94;66.29
20156;BME280;10238;49.556;10.956;2023-05-03T09:17:14;99130.47;;;23.20;66.47
20156;BME280;10238;49.556;10.956;2023-05-03T09:20:05;99142.63;;;23.56;64.06
20156;BME280;10238;49.556;10.956;2023-05-03T09:22:54;99141.50;;;23.70;63.49
20156;BME280;10238;49.556;10.956;2023-05-03T09:25:43;99144.69;;;23.98;61.83
20156;BME280;10238;49.556;10.956;2023-05-03T09:28:40;99131.38;;;24.14;60.04
20156;BME280;10238;49.556;10.956;2023-05-03T09:31:30;99136.97;;;24.19;60.57
20156;BME280;10238;49.556;10.956;2023-05-03T09:34:22;99138.47;;;24.40;59.17
20156;BME280;10238;49.556;10.956;2023-05-03T09:37:11;99138.47;;;24.40;60.86
20156;BME280;10238;49.556;10.956;2023-05-03T09:40:05;99135.44;;;24.48;60.39
20156;BME280;10238;49.556;10.956;2023-05-03T09:43:07;99127.34;;;24.84;58.30
20156;BME280;10238;49.556;10.956;2023-05-03T09:46:07;99117.63;;;24.94;58.05
20156;BME280;10238;49.556;10.956;2023-05-03T09:48:56;99117.03;;;25.22;58.28
20156;BME280;10238;49.556;10.956;2023-05-03T09:51:44;99119.97;;;25.39;57.69
20156;BME280;10238;49.556;10.956;2023-05-03T09:54:35;99120.50;;;25.47;54.74
20156;BME280;10238;49.556;10.956;2023-05-03T09:57:24;99108.00;;;25.69;55.95
20156;BME280;10238;49.556;10.956;2023-05-03T10:00:15;99112.31;;;25.88;55.15
20156;BME280;10238;49.556;10.956;2023-05-03T10:03:07;99104.31;;;26.16;54.16
20156;BME280;10238;49.556;10.956;2023-05-03T10:05:58;99116.28;;;26.04;53.19
20156;BME280;10238;49.556;10.956;2023-05-03T10:08:52;99106.38;;;25.91;52.69
20156;BME280;10238;49.556;10.956;2023-05-03T10:11:49;99101.50;;;26.11;53.88
20156;BME280;10238;49.556;10.956;2023-05-03T10:14:40;99109.19;;;26.26;51.65
20156;BME280;10238;49.556;10.956;2023-05-03T10:17:31;99095.00;;;25.94;53.05
20156;BME280;10238;49.556;10.956;2023-05-03T10:20:37;99094.50;;;26.27;53.42
20156;BME280;10238;49.556;10.956;2023-05-03T10:23:27;99088.31;;;26.66;53.11
20156;BME280;10238;49.556;10.956;2023-05-03T10:26:15;99090.75;;;26.90;52.53
20156;BME280;10238;49.556;10.956;2023-05-03T10:29:05;99087.91;;;26.97;51.65
20156;BME280;10238;49.556;10.956;2023-05-03T10:31:53;99080.84;;;27.12;51.18
20156;BME280;10238;49.556;10.956;2023-05-03T10:34:43;99082.84;;;27.17;50.66
20156;BME280;10238;49.556;10.956;2023-05-03T10:37:32;99078.13;;;27.24;50.63
20156;BME280;10238;49.556;10.956;2023-05-03T10:40:21;99082.59;;;27.18;53.14
20156;BME280;10238;49.556;10.956;2023-05-03T10:43:40;99087.00;;;27.19;50.54
20156;BME280;10238;49.556;10.956;2023-05-03T10:46:34;99082.88;;;27.45;50.29
20156;BME280;10238;49.556;10.956;2023-05-03T10:49:22;99090.53;;;27.60;49.71
20156;BME280;10238;49.556;10.956;2023-05-03T10:52:49;99080.75;;;27.64;49.33
20156;BME280;10238;49.556;10.956;2023-05-03T10:55:36;99078.72;;;27.71;49.37
20156;BME280;10238;49.556;10.956;2023-05-03T10:58:25;99082.59;;;27.75;50.01
20156;BME280;10238;49.556;10.956;2023-05-03T11:01:15;99078.84;;;27.92;49.82
20156;BME280;10238;49.556;10.956;2023-05-03T11:04:08;99076.72;;;27.66;48.00
20156;BME280;10238;49.556;10.956;2023-05-03T11:06:57;99073.91;;;27.78;47.91
20156;BME280;10238;49.556;10.956;2023-05-03T11:09:46;99062.78;;;27.96;49.64
20156;BME280;10238;49.556;10.956;2023-05-03T11:12:37;99072.53;;;28.08;49.58
20156;BME280;10238;49.556;10.956;2023-05-03T11:15:25;99055.75;;;28.38;48.72
20156;BME280;10238;49.556;10.956;2023-05-03T11:18:13;99048.94;;;28.57;48.66
20156;BME280;10238;49.556;10.956;2023-05-03T11:21:02;99046.38;;;28.72;48.56
20156;BME280;10238;49.556;10.956;2023-05-03T11:23:50;99042.19;;;28.86;47.70
20156;BME280;10238;49.556;10.956;2023-05-03T11:26:39;99040.03;;;28.88;49.38
20156;BME280;10238;49.556;10.956;2023-05-03T11:29:27;99040.47;;;29.01;47.05
20156;BME280;10238;49.556;10.956;2023-05-03T11:32:16;99036.41;;;29.04;49.05
20156;BME280;10238;49.556;10.956;2023-05-03T11:35:05;99036.25;;;28.94;49.68
20156;BME280;10238;49.556;10.956;2023-05-03T11:37:55;99037.59;;;29.13;49.38
20156;BME280;10238;49.556;10.956;2023-05-03T11:40:44;99028.19;;;29.04;49.65
20156;BME280;10238;49.556;10.956;2023-05-03T11:43:32;99039.91;;;29.21;48.58
20156;BME280;10238;49.556;10.956;2023-05-03T11:46:25;99034.09;;;29.44;49.46
20156;BME280;10238;49.556;10.956;2023-05-03T11:49:17;99029.16;;;29.68;48.13
20156;BME280;10238;49.556;10.956;2023-05-03T11:52:06;99037.78;;;29.81;46.33
20156;BME280;10238;49.556;10.956;2023-05-03T11:54:55;99040.72;;;29.75;45.29
20156;BME280;10238;49.556;10.956;2023-05-03T11:57:44;99040.00;;;29.84;45.05
20156;BME280;10238;49.556;10.956;2023-05-03T12:00:32;99038.63;;;29.87;45.53
20156;BME280;10238;49.556;10.956;2023-05-03T12:03:21;99027.00;;;29.75;46.60
20156;BME280;10238;49.556;10.956;2023-05-03T12:06:16;99027.88;;;29.80;46.41
20156;BME280;10238;49.556;10.956;2023-05-03T12:09:13;99025.75;;;29.87;46.32
20156;BME280;10238;49.556;10.956;2023-05-03T12:12:06;99013.19;;;29.91;46.14
20156;BME280;10238;49.556;10.956;2023-05-03T12:14:59;99009.78;;;29.79;38.77
20156;BME280;10238;49.556;10.956;2023-05-03T12:17:56;99011.22;;;29.60;42.28
20156;BME280;10238;49.556;10.956;2023-05-03T12:20:54;99009.84;;;29.84;46.35
20156;BME280;10238;49.556;10.956;2023-05-03T12:24:03;99008.28;;;29.98;44.47
20156;BME280;10238;49.556;10.956;2023-05-03T12:26:52;99006.78;;;30.17;43.03
20156;BME280;10238;49.556;10.956;2023-05-03T12:29:44;99009.13;;;30.04;43.02
20156;BME280;10238;49.556;10.956;2023-05-03T12:32:33;99003.25;;;29.85;42.03
20156;BME280;10238;49.556;10.956;2023-05-03T12:35:25;99008.75;;;29.85;41.26
20156;BME280;10238;49.556;10.956;2023-05-03T12:38:14;98996.66;;;29.81;40.81
20156;BME280;10238;49.556;10.956;2023-05-03T12:41:03;99001.81;;;29.51;40.89
20156;BME280;10238;49.556;10.956;2023-05-03T12:43:54;98998.22;;;29.46;41.10
20156;BME280;10238;49.556;10.956;2023-05-03T12:46:47;98997.38;;;29.45;41.14
20156;BME280;10238;49.556;10.956;2023-05-03T12:49:36;98992.94;;;29.39;40.96
20156;BME280;10238;49.556;10.956;2023-05-03T12:52:25;98999.34;;;29.50;41.30
20156;BME280;10238;49.556;10.956;2023-05-03T12:55:16;98990.44;;;29.33;41.50
20156;BME280;10238;49.556;10.956;2023-05-03T12:58:05;98991.34;;;29.43;41.95
20156;BME280;10238;49.556;10.956;2023-05-03T13:01:12;98976.81;;;29.69;41.10
20156;BME280;10238;49.556;10.956;2023-05-03T13:04:21;98979.94;;;29.83;40.74
20156;BME280;10238;49.556;10.956;2023-05-03T13:07:29;98972.84;;;29.92;40.69
20156;BME280;10238;49.556;10.956;2023-05-03T13:10:27;98965.53;;;30.02;40.88
20156;BME280;10238;49.556;10.956;2023-05-03T13:13:15;98960.63;;;30.09;43.26
20156;BME280;10238;49.556;10.956;2023-05-03T13:16:04;98951.06;;;30.17;39.19
20156;BME280;10238;49.556;10.956;2023-05-03T13:18:53;98955.25;;;30.24;40.45
20156;BME280;10238;49.556;10.956;2023-05-03T13:21:45;98952.25;;;30.21;40.16
20156;BME280;10238;49.556;10.956;2023-05-03T13:24:33;98953.09;;;30.26;40.45
20156;BME280;10238;49.556;10.956;2023-05-03T13:27:21;98951.44;;;30.30;41.35
20156;BME280;10238;49.556;10.956;2023-05-03T13:30:10;98952.28;;;30.31;41.03
20156;BME280;10238;49.556;10.956;2023-05-03T13:33:00;98948.78;;;30.45;40.25
20156;BME280;10238;49.556;10.956;2023-05-03T13:35:48;98950.69;;;30.40;41.08
20156;BME280;10238;49.556;10.956;2023-05-03T13:38:37;98941.09;;;30.47;39.00
20156;BME280;10238;49.556;10.956;2023-05-03T13:41:27;98931.25;;;30.51;41.02
20156;BME280;10238;49.556;10.956;2023-05-03T13:44:15;98932.00;;;30.42;39.08
20156;BME280;10238;49.556;10.956;2023-05-03T13:47:03;98924.00;;;30.30;39.39
20156;BME280;10238;49.556;10.956;2023-05-03T13:49:54;98928.44;;;30.36;37.70
20156;BME280;10238;49.556;10.956;2023-05-03T13:52:42;98929.88;;;30.54;38.39
20156;BME280;10238;49.556;10.956;2023-05-03T13:55:32;98925.78;;;30.66;40.59
20156;BME280;10238;49.556;10.956;2023-05-03T13:58:19;98930.44;;;30.61;37.80
20156;BME280;10238;49.556;10.956;2023-05-03T14:01:07;98925.19;;;30.49;38.13
20156;BME280;10238;49.556;10.956;2023-05-03T14:03:56;98920.22;;;30.41;40.17
20156;BME280;10238;49.556;10.956;2023-05-03T14:06:44;98919.94;;;30.38;38.81
20156;BME280;10238;49.556;10.956;2023-05-03T14:09:32;98918.78;;;30.24;38.25
20156;BME280;10238;49.556;10.956;2023-05-03T14:12:26;98920.78;;;30.38;37.41
20156;BME280;10238;49.556;10.956;2023-05-03T14:15:14;98924.63;;;30.47;37.83
20156;BME280;10238;49.556;10.956;2023-05-03T14:18:02;98922.31;;;30.19;37.07
20156;BME280;10238;49.556;10.956;2023-05-03T14:20:52;98915.59;;;30.00;37.21
20156;BME280;10238;49.556;10.956;2023-05-03T14:23:40;98914.47;;;29.91;37.33
20156;BME280;10238;49.556;10.956;2023-05-03T14:26:28;98909.56;;;29.98;38.03
20156;BME280;10238;49.556;10.956;2023-05-03T14:29:17;98912.00;;;28.95;34.10
20156;BME280;10238;49.556;10.956;2023-05-03T14:32:05;98899.47;;;29.62;39.52
20156;BME280;10238;49.556;10.956;2023-05-03T14:34:54;98909.03;;;30.01;37.95
20156;BME280;10238;49.556;10.956;2023-05-03T14:37:42;98904.81;;;30.30;38.64
20156;BME280;10238;49.556;10.956;2023-05-03T14:40:30;98904.84;;;30.35;35.19
20156;BME280;10238;49.556;10.956;2023-05-03T14:43:18;98901.03;;;30.46;37.36
20156;BME280;10238;49.556;10.956;2023-05-03T14:46:08;98905.47;;;30.57;34.43
20156;BME280;10238;49.556;10.956;2023-05-03T14:48:56;98902.50;;;30.74;38.70